Time;durP1;ratioP1;P1;durP2;ratioP2;P2;SDS_P1;SDS_P2;PMS_P1;PMS_P2;Temp;Humidity;BMP_temperature;BMP_pressure;BME280_temperature;BME280_humidity;BME280_pressure;Samples;Min_cycle;Max_cycle;Signal;HPM_P1;HPM_P2
2021/07/26 00:01:03;;;;;;;8.73;5.13;;;19.00;91.20;;;;;;4976259;28;20034;-66
2021/07/26 00:03:29;;;;;;;11.77;6.20;;;19.10;91.10;;;;;;4994353;28;20030;-67
2021/07/26 00:05:56;;;;;;;8.32;5.63;;;19.00;91.10;;;;;;4992790;28;20106;-66
2021/07/26 00:08:22;;;;;;;8.25;5.93;;;19.00;91.10;;;;;;5010052;28;20095;-66
2021/07/26 00:10:48;;;;;;;7.90;6.00;;;18.90;91.10;;;;;;4979425;28;20026;-66
2021/07/26 00:13:14;;;;;;;8.43;5.90;;;18.80;91.10;;;;;;4988818;28;20089;-66
2021/07/26 00:15:40;;;;;;;9.57;5.90;;;18.80;91.10;;;;;;4997240;28;20027;-66
2021/07/26 00:18:06;;;;;;;9.00;5.80;;;18.80;91.20;;;;;;4995712;28;20489;-66
2021/07/26 00:20:32;;;;;;;6.22;5.07;;;18.70;91.20;;;;;;4991395;28;20109;-66
2021/07/26 00:22:57;;;;;;;11.63;5.53;;;18.70;91.20;;;;;;4991502;28;20029;-66
2021/07/26 00:25:23;;;;;;;8.55;5.50;;;18.70;91.20;;;;;;4999958;28;20118;-66
2021/07/26 00:27:48;;;;;;;11.18;5.40;;;18.60;91.20;;;;;;4990996;28;20026;-66
2021/07/26 00:30:14;;;;;;;9.48;4.68;;;18.70;91.20;;;;;;4990354;28;20321;-65
2021/07/26 00:32:39;;;;;;;7.03;5.25;;;18.70;91.20;;;;;;4991528;28;20063;-66
2021/07/26 00:35:05;;;;;;;6.18;4.65;;;18.60;91.20;;;;;;4972133;28;20026;-66
2021/07/26 00:37:31;;;;;;;6.75;5.13;;;18.60;91.30;;;;;;4971950;28;20105;-66
2021/07/26 00:39:57;;;;;;;9.27;5.00;;;18.60;91.30;;;;;;4991421;28;20022;-66
2021/07/26 00:42:23;;;;;;;7.20;4.72;;;18.60;91.30;;;;;;4990911;28;20034;-66
2021/07/26 00:44:49;;;;;;;5.53;5.00;;;18.60;91.20;;;;;;4987235;28;20026;-67
2021/07/26 00:47:14;;;;;;;7.80;4.90;;;18.60;91.30;;;;;;4990263;28;20474;-67
2021/07/26 00:49:40;;;;;;;5.43;4.72;;;18.60;91.20;;;;;;4990809;28;20030;-66
2021/07/26 00:52:06;;;;;;;7.25;4.55;;;18.60;91.30;;;;;;4990900;28;20379;-66
2021/07/26 00:54:37;;;;;;;5.10;4.55;;;18.60;91.30;;;;;;4991264;28;20513;-66
2021/07/26 00:57:04;;;;;;;7.07;4.57;;;18.60;91.30;;;;;;4991194;28;20132;-66
2021/07/26 00:59:30;;;;;;;7.95;4.43;;;18.60;91.20;;;;;;4989061;28;20154;-67
2021/07/26 01:01:57;;;;;;;6.40;4.57;;;18.60;91.40;;;;;;4990911;28;20098;-67
2021/07/26 01:04:23;;;;;;;6.72;4.63;;;18.60;91.10;;;;;;4990120;28;20117;-66
2021/07/26 01:06:49;;;;;;;10.50;4.53;;;18.50;91.10;;;;;;4988841;28;20106;-66
2021/07/26 01:09:15;;;;;;;7.65;4.85;;;18.50;91.10;;;;;;4989962;28;20038;-66
2021/07/26 01:11:41;;;;;;;5.55;4.90;;;18.50;91.20;;;;;;4991119;28;20031;-66
2021/07/26 01:14:07;;;;;;;7.18;4.78;;;18.50;91.20;;;;;;4990899;28;20037;-67
2021/07/26 01:16:33;;;;;;;5.68;4.60;;;18.40;91.20;;;;;;4990192;28;20410;-66
2021/07/26 01:19:01;;;;;;;7.55;4.68;;;18.40;91.30;;;;;;4996671;28;20124;-67
2021/07/26 01:21:27;;;;;;;5.18;4.68;;;18.40;91.30;;;;;;4989376;28;20022;-66
2021/07/26 01:23:53;;;;;;;6.38;4.88;;;18.40;91.30;;;;;;4990530;28;20031;-66
2021/07/26 01:26:24;;;;;;;6.97;4.80;;;18.40;91.30;;;;;;4963040;28;20503;-66
2021/07/26 01:28:52;;;;;;;7.85;5.35;;;18.50;91.40;;;;;;4990813;28;20475;-66
2021/07/26 01:31:18;;;;;;;8.60;4.82;;;18.40;91.40;;;;;;4990592;28;20038;-66
2021/07/26 01:33:45;;;;;;;6.20;4.97;;;18.50;91.40;;;;;;4990445;28;20471;-66
2021/07/26 01:36:13;;;;;;;6.85;4.53;;;18.40;91.30;;;;;;4988651;28;20030;-66
2021/07/26 01:38:39;;;;;;;9.13;5.35;;;18.40;91.40;;;;;;4990892;28;20023;-66
2021/07/26 01:41:07;;;;;;;6.07;4.95;;;18.40;91.40;;;;;;4990371;28;20027;-66
2021/07/26 01:43:34;;;;;;;7.60;5.47;;;18.40;91.40;;;;;;4994303;28;20049;-67
2021/07/26 01:46:12;;;;;;;5.60;4.53;;;18.30;91.40;;;;;;4990392;28;20152;-66
2021/07/26 01:48:55;;;;;;;7.07;5.05;;;18.30;91.70;;;;;;4985683;28;20402;-67
2021/07/26 01:51:40;;;;;;;6.55;4.90;;;18.30;91.50;;;;;;4993944;28;20183;-66
2021/07/26 01:54:07;;;;;;;5.03;4.32;;;18.30;91.50;;;;;;4995594;28;20022;-66
2021/07/26 01:56:33;;;;;;;5.95;5.18;;;18.30;91.50;;;;;;4992652;28;20110;-66
2021/07/26 01:58:59;;;;;;;5.68;4.32;;;18.30;91.50;;;;;;4994093;28;20125;-66
2021/07/26 02:01:25;;;;;;;8.80;4.80;;;18.40;91.50;;;;;;4976242;28;20112;-66
2021/07/26 02:03:51;;;;;;;7.43;4.75;;;18.40;91.50;;;;;;4992910;28;20487;-66
2021/07/26 02:06:16;;;;;;;6.93;4.50;;;18.40;91.50;;;;;;4992542;28;20038;-66
2021/07/26 02:08:42;;;;;;;5.35;4.28;;;18.40;91.40;;;;;;4994277;28;20039;-67
2021/07/26 02:11:07;;;;;;;7.65;4.80;;;18.30;91.40;;;;;;4993041;28;20030;-67
2021/07/26 02:16:12;;;;;;;8.52;4.47;;;18.30;91.40;;;;;;4758580;23;20056;-69
2021/07/26 02:18:38;;;;;;;12.00;4.88;;;18.30;91.40;;;;;;5005717;28;20022;-69
2021/07/26 02:21:03;;;;;;;12.32;4.60;;;18.20;91.40;;;;;;5016310;28;20025;-70
2021/07/26 02:23:29;;;;;;;6.63;4.28;;;18.20;91.40;;;;;;5007918;28;20363;-70
2021/07/26 02:25:55;;;;;;;8.50;4.50;;;18.20;91.40;;;;;;5011456;28;20053;-70
2021/07/26 02:28:21;;;;;;;4.60;3.90;;;18.20;91.40;;;;;;5012857;28;20073;-70
2021/07/26 02:30:46;;;;;;;7.95;4.32;;;18.20;91.50;;;;;;5012050;28;20176;-71
2021/07/26 02:33:13;;;;;;;7.40;5.18;;;18.20;91.50;;;;;;5013094;28;20041;-69
2021/07/26 02:35:38;;;;;;;9.15;5.97;;;18.20;91.50;;;;;;5008856;28;20417;-69
2021/07/26 02:38:04;;;;;;;13.80;5.40;;;18.10;91.50;;;;;;5012234;28;20026;-69
2021/07/26 02:40:29;;;;;;;7.40;5.90;;;18.10;91.40;;;;;;5012267;28;20371;-70
2021/07/26 02:42:56;;;;;;;9.57;5.43;;;18.00;91.40;;;;;;5012705;28;20025;-69
2021/07/26 02:45:26;;;;;;;9.07;5.13;;;18.00;91.50;;;;;;5010515;28;20490;-69
2021/07/26 02:47:52;;;;;;;6.65;4.78;;;17.90;91.60;;;;;;5012950;28;20116;-69
2021/07/26 02:50:18;;;;;;;6.25;4.57;;;17.90;91.60;;;;;;5012794;28;20164;-70
2021/07/26 02:52:43;;;;;;;7.88;4.90;;;17.90;91.60;;;;;;5012563;28;20553;-70
2021/07/26 02:55:09;;;;;;;6.07;4.07;;;17.90;91.60;;;;;;5007543;28;20026;-70
2021/07/26 02:57:35;;;;;;;6.25;3.88;;;17.90;91.60;;;;;;5010787;28;20494;-70
2021/07/26 03:00:01;;;;;;;7.95;4.03;;;17.90;91.60;;;;;;5012367;28;20025;-69
2021/07/26 03:02:26;;;;;;;6.65;4.35;;;17.80;91.60;;;;;;5012640;28;20474;-69
2021/07/26 03:04:52;;;;;;;7.80;3.67;;;17.80;91.60;;;;;;5006971;28;20426;-70
2021/07/26 03:07:17;;;;;;;6.28;4.30;;;17.80;91.60;;;;;;4997077;28;20110;-70
2021/07/26 03:09:43;;;;;;;6.13;4.00;;;17.80;91.60;;;;;;5016227;28;20021;-69
2021/07/26 03:12:09;;;;;;;3.78;3.33;;;17.80;91.60;;;;;;5024990;28;20642;-69
2021/07/26 03:14:35;;;;;;;5.55;3.80;;;17.70;91.60;;;;;;5014078;28;20493;-70
2021/07/26 03:17:04;;;;;;;5.10;4.05;;;17.70;91.60;;;;;;5012492;28;20116;-69
2021/07/26 03:19:34;;;;;;;7.68;4.00;;;17.70;91.70;;;;;;5002248;28;20057;-69
2021/07/26 03:22:47;;;;;;;7.38;3.95;;;17.60;91.70;;;;;;5012791;28;20389;-69
2021/07/26 03:25:13;;;;;;;4.15;3.47;;;17.60;91.70;;;;;;4931966;29;20039;-69
2021/07/26 03:27:38;;;;;;;4.03;3.63;;;17.50;91.60;;;;;;5001965;28;20042;-70
2021/07/26 03:30:05;;;;;;;7.68;3.65;;;17.50;91.70;;;;;;5011744;28;20038;-71
2021/07/26 03:32:30;;;;;;;15.10;4.95;;;17.50;91.90;;;;;;5011617;28;20041;-69
2021/07/26 03:34:56;;;;;;;6.35;4.40;;;17.50;91.90;;;;;;5010060;28;20034;-69
2021/07/26 03:37:21;;;;;;;5.85;4.65;;;17.50;91.90;;;;;;5011877;28;20024;-70
2021/07/26 03:39:47;;;;;;;7.45;4.50;;;17.40;91.80;;;;;;5010683;28;20057;-70
2021/07/26 03:42:12;;;;;;;8.05;4.80;;;17.40;91.80;;;;;;5011605;28;20057;-70
2021/07/26 03:44:38;;;;;;;4.28;3.65;;;17.40;91.90;;;;;;5008735;28;20537;-69
2021/07/26 03:47:04;;;;;;;6.90;4.40;;;17.40;91.90;;;;;;5019626;28;20121;-70
2021/07/26 03:49:29;;;;;;;7.68;4.13;;;17.40;91.90;;;;;;5011864;28;20026;-69
2021/07/26 03:51:55;;;;;;;6.03;4.20;;;17.30;91.90;;;;;;5011994;28;20034;-70
2021/07/26 03:54:21;;;;;;;9.80;4.85;;;17.30;91.90;;;;;;5009817;28;20382;-70
2021/07/26 03:56:46;;;;;;;7.22;5.03;;;17.30;91.90;;;;;;5010736;28;20075;-69
2021/07/26 03:59:12;;;;;;;7.60;4.55;;;17.30;92.00;;;;;;5011433;28;20359;-69
2021/07/26 04:01:37;;;;;;;5.57;4.57;;;17.30;92.00;;;;;;5011107;28;20489;-69
2021/07/26 04:04:03;;;;;;;7.97;4.55;;;17.30;92.10;;;;;;5011384;28;20025;-70
2021/07/26 04:06:29;;;;;;;10.15;4.53;;;17.30;92.10;;;;;;4993211;28;20099;-70
2021/07/26 04:08:55;;;;;;;7.10;4.50;;;17.30;92.20;;;;;;5007528;28;20449;-69
2021/07/26 04:11:27;;;;;;;5.88;3.90;;;17.30;92.30;;;;;;5010417;28;20363;-72
2021/07/26 04:13:56;;;;;;;8.27;4.90;;;17.30;92.30;;;;;;5011288;28;20022;-72
2021/07/26 04:16:22;;;;;;;8.48;4.85;;;17.30;92.20;;;;;;5009128;28;20030;-72
2021/07/26 04:18:50;;;;;;;5.32;4.25;;;17.30;92.20;;;;;;4988303;28;20036;-72
2021/07/26 04:21:17;;;;;;;4.40;4.00;;;17.30;92.30;;;;;;5003760;28;20516;-72
2021/07/26 04:23:43;;;;;;;5.10;4.22;;;17.30;92.40;;;;;;5010892;28;20548;-72
2021/07/26 04:26:08;;;;;;;7.30;4.50;;;17.30;92.40;;;;;;5010162;28;20038;-73
2021/07/26 04:28:35;;;;;;;7.35;4.78;;;17.40;92.40;;;;;;5009891;28;20094;-72
2021/07/26 04:31:00;;;;;;;6.72;4.80;;;17.30;92.30;;;;;;5010183;28;20052;-72
2021/07/26 04:33:26;;;;;;;7.40;4.20;;;17.30;92.20;;;;;;4993574;28;20018;-72
2021/07/26 04:35:51;;;;;;;6.70;4.13;;;17.30;92.30;;;;;;4990206;28;20085;-73
2021/07/26 04:38:17;;;;;;;8.77;3.85;;;17.30;92.30;;;;;;5009645;28;20498;-72
2021/07/26 04:40:43;;;;;;;6.20;3.80;;;17.30;92.40;;;;;;5007468;28;20550;-72
2021/07/26 04:43:08;;;;;;;5.65;4.38;;;17.30;92.40;;;;;;4991277;28;20121;-69
2021/07/26 04:45:34;;;;;;;6.85;3.92;;;17.30;92.30;;;;;;5006710;28;20063;-68
2021/07/26 04:47:59;;;;;;;4.50;4.03;;;17.40;92.30;;;;;;5022048;28;20229;-69
2021/07/26 04:50:25;;;;;;;8.02;3.88;;;17.30;92.30;;;;;;5010051;28;20445;-70
2021/07/26 04:52:50;;;;;;;9.35;3.95;;;17.40;92.40;;;;;;5010089;28;20445;-70
2021/07/26 04:55:16;;;;;;;4.53;3.60;;;17.50;92.40;;;;;;5009464;28;20026;-69
2021/07/26 04:57:41;;;;;;;5.10;3.78;;;17.50;92.40;;;;;;5010096;28;20169;-69
2021/07/26 05:00:07;;;;;;;5.88;4.10;;;17.50;92.40;;;;;;5010486;28;20025;-69
2021/07/26 05:02:33;;;;;;;5.40;3.88;;;17.60;92.40;;;;;;5011363;28;20451;-68
2021/07/26 05:05:01;;;;;;;6.97;3.75;;;17.70;92.50;;;;;;5009746;28;20044;-69
2021/07/26 05:07:27;;;;;;;7.80;4.15;;;17.70;92.50;;;;;;5010750;28;20022;-71
2021/07/26 05:09:52;;;;;;;8.27;4.18;;;17.80;92.50;;;;;;5007405;28;20029;-71
2021/07/26 05:12:18;;;;;;;8.77;3.80;;;17.90;92.40;;;;;;5010238;28;20026;-69
2021/07/26 05:14:48;;;;;;;7.40;4.05;;;17.90;92.60;;;;;;5009503;28;20038;-69
2021/07/26 05:17:23;;;;;;;4.13;3.70;;;18.00;92.40;;;;;;5009248;28;20022;-69
2021/07/26 05:19:48;;;;;;;4.53;3.45;;;18.00;92.40;;;;;;5010570;28;20022;-69
2021/07/26 05:22:14;;;;;;;6.70;3.78;;;18.10;92.40;;;;;;5011050;28;20103;-68
2021/07/26 05:24:40;;;;;;;4.65;3.30;;;18.10;92.30;;;;;;5010098;28;20038;-69
2021/07/26 05:27:07;;;;;;;4.82;3.70;;;18.20;92.20;;;;;;5008699;28;20025;-69
2021/07/26 05:29:33;;;;;;;6.38;3.53;;;18.20;92.20;;;;;;5009072;28;20030;-71
2021/07/26 05:31:59;;;;;;;4.38;3.33;;;18.20;92.20;;;;;;4992675;28;20022;-68
2021/07/26 05:34:25;;;;;;;6.53;4.00;;;18.20;92.10;;;;;;5010695;28;20030;-68
2021/07/26 05:36:51;;;;;;;7.18;3.55;;;18.20;92.10;;;;;;5003530;28;20088;-67
2021/07/26 05:39:17;;;;;;;6.35;3.90;;;18.30;92.10;;;;;;5006092;28;20022;-68
2021/07/26 05:41:43;;;;;;;3.80;3.45;;;18.30;92.10;;;;;;5008338;28;20390;-67
2021/07/26 05:44:09;;;;;;;3.90;3.35;;;18.30;92.10;;;;;;5008986;28;20367;-67
2021/07/26 05:46:34;;;;;;;5.75;3.20;;;18.40;92.00;;;;;;5020717;28;20075;-68
2021/07/26 05:49:00;;;;;;;3.97;3.08;;;18.40;92.00;;;;;;5009339;28;20075;-68
2021/07/26 05:51:26;;;;;;;6.07;3.42;;;18.40;92.00;;;;;;4991925;28;20025;-70
2021/07/26 05:53:51;;;;;;;5.43;3.50;;;18.40;92.00;;;;;;5009614;28;20037;-67
2021/07/26 05:56:17;;;;;;;4.95;3.38;;;18.40;91.90;;;;;;5007343;28;20045;-68
2021/07/26 05:58:46;;;;;;;5.45;3.20;;;18.40;91.90;;;;;;5009115;28;20457;-68
2021/07/26 06:01:23;;;;;;;6.60;3.47;;;18.50;91.90;;;;;;5007648;28;20014;-67
2021/07/26 06:03:50;;;;;;;5.90;3.50;;;18.50;91.80;;;;;;5009570;28;20124;-69
2021/07/26 06:06:16;;;;;;;3.83;3.35;;;18.50;91.80;;;;;;5008214;28;20068;-68
2021/07/26 06:08:42;;;;;;;6.10;3.28;;;18.50;91.70;;;;;;5010151;28;20034;-70
2021/07/26 06:11:08;;;;;;;4.13;3.45;;;18.50;91.70;;;;;;5008675;28;20108;-68
2021/07/26 06:13:33;;;;;;;5.30;3.25;;;18.60;91.70;;;;;;5010003;28;20112;-68
2021/07/26 06:15:59;;;;;;;4.82;3.20;;;18.60;91.70;;;;;;5007026;28;20036;-68
2021/07/26 06:18:26;;;;;;;6.05;3.33;;;18.70;91.70;;;;;;5009494;28;20065;-69
2021/07/26 06:20:52;;;;;;;4.22;3.05;;;18.70;91.60;;;;;;5010630;28;20030;-68
2021/07/26 06:23:20;;;;;;;5.07;3.30;;;18.80;91.70;;;;;;5008804;28;20037;-68
2021/07/26 06:25:46;;;;;;;6.22;3.25;;;18.90;91.70;;;;;;4990544;28;20121;-68
2021/07/26 06:28:11;;;;;;;3.65;3.25;;;18.90;91.60;;;;;;5009770;28;20113;-68
2021/07/26 06:30:37;;;;;;;3.58;2.92;;;19.00;91.60;;;;;;5013335;28;20045;-69
2021/07/26 06:33:06;;;;;;;4.15;3.38;;;19.00;91.60;;;;;;5014249;28;20093;-68
2021/07/26 06:35:35;;;;;;;4.10;3.30;;;19.00;91.50;;;;;;5011557;28;20030;-68
2021/07/26 06:38:00;;;;;;;6.00;3.95;;;19.00;91.40;;;;;;5009565;28;20044;-68
2021/07/26 06:40:26;;;;;;;4.47;3.13;;;19.10;91.40;;;;;;5013533;28;20478;-68
2021/07/26 06:42:51;;;;;;;8.50;4.60;;;19.10;91.40;;;;;;5012972;28;20394;-68
2021/07/26 06:45:17;;;;;;;4.97;3.33;;;19.10;91.30;;;;;;5011555;28;20071;-70
2021/07/26 06:47:44;;;;;;;4.60;3.03;;;19.10;91.30;;;;;;5013567;28;20109;-68
2021/07/26 06:50:10;;;;;;;3.40;3.10;;;19.20;91.30;;;;;;5013865;28;20105;-71
2021/07/26 06:52:36;;;;;;;4.55;2.90;;;19.30;91.20;;;;;;5013118;28;20022;-68
2021/07/26 06:55:02;;;;;;;4.38;3.38;;;19.40;91.10;;;;;;5011591;28;20363;-68
2021/07/26 06:57:27;;;;;;;7.18;3.40;;;19.50;91.30;;;;;;5013401;28;20037;-70
2021/07/26 06:59:53;;;;;;;3.75;3.13;;;19.50;91.00;;;;;;5013148;28;20506;-68
2021/07/26 07:02:18;;;;;;;6.35;3.53;;;19.60;90.90;;;;;;5012887;28;20502;-68
2021/07/26 07:04:44;;;;;;;3.65;3.22;;;19.60;90.80;;;;;;5011806;28;20083;-68
2021/07/26 07:07:10;;;;;;;3.95;3.00;;;19.60;90.70;;;;;;5013218;28;20483;-70
2021/07/26 07:09:36;;;;;;;6.47;2.97;;;19.60;90.80;;;;;;5012463;28;20080;-68
2021/07/26 07:12:02;;;;;;;5.63;3.50;;;19.70;90.70;;;;;;5013058;28;20034;-68
2021/07/26 07:14:27;;;;;;;4.50;3.70;;;19.80;90.70;;;;;;5012764;28;20034;-70
2021/07/26 07:16:53;;;;;;;5.20;3.40;;;19.80;90.70;;;;;;5004833;28;20026;-68
2021/07/26 07:19:18;;;;;;;6.60;3.17;;;19.90;90.60;;;;;;4996232;28;20105;-68
2021/07/26 07:21:44;;;;;;;5.43;3.20;;;19.90;90.50;;;;;;5006252;28;20040;-70
2021/07/26 07:24:10;;;;;;;5.53;3.80;;;20.00;90.60;;;;;;5013255;28;20026;-68
2021/07/26 07:26:35;;;;;;;7.40;3.63;;;20.00;90.50;;;;;;5010694;28;20026;-68
2021/07/26 07:29:01;;;;;;;12.27;3.40;;;20.10;90.40;;;;;;5012573;28;20037;-67
2021/07/26 07:31:27;;;;;;;7.05;3.22;;;20.20;90.40;;;;;;5012953;28;20506;-67
2021/07/26 07:33:54;;;;;;;4.30;3.28;;;20.30;90.40;;;;;;5012487;28;20527;-69
2021/07/26 07:36:22;;;;;;;6.82;3.58;;;20.40;90.30;;;;;;5004504;28;20490;-68
2021/07/26 07:38:49;;;;;;;5.20;3.20;;;20.60;90.10;;;;;;5006710;28;20029;-67
2021/07/26 07:41:16;;;;;;;5.47;3.30;;;20.80;89.50;;;;;;5011915;28;20026;-70
2021/07/26 07:43:42;;;;;;;4.28;3.13;;;21.00;89.50;;;;;;5012711;28;20109;-68
2021/07/26 07:46:08;;;;;;;5.65;3.05;;;21.20;88.90;;;;;;5010330;28;20156;-68
2021/07/26 07:48:33;;;;;;;4.82;2.90;;;21.30;88.50;;;;;;5010765;28;20180;-69
2021/07/26 07:51:00;;;;;;;5.40;2.80;;;21.50;88.10;;;;;;5012297;28;20030;-69
2021/07/26 07:53:26;;;;;;;6.97;2.80;;;21.70;87.90;;;;;;4993066;28;20401;-67
2021/07/26 07:55:52;;;;;;;5.40;2.45;;;21.90;87.30;;;;;;5010481;28;20025;-72
2021/07/26 07:58:18;;;;;;;3.92;2.42;;;22.00;86.50;;;;;;5010203;28;20474;-70
2021/07/26 08:00:44;;;;;;;3.45;2.60;;;22.10;86.00;;;;;;5011960;28;20022;-70
2021/07/26 08:03:10;;;;;;;2.85;2.42;;;22.10;85.50;;;;;;5012089;28;20483;-71
2021/07/26 08:05:35;;;;;;;4.82;2.50;;;22.20;85.60;;;;;;5009353;28;20397;-70
2021/07/26 08:08:01;;;;;;;4.80;2.70;;;22.30;85.20;;;;;;5011973;28;20032;-69
2021/07/26 08:10:27;;;;;;;3.40;2.53;;;22.40;84.90;;;;;;5005175;28;20037;-70
2021/07/26 08:12:53;;;;;;;3.38;2.60;;;22.40;84.50;;;;;;4993360;28;20026;-70
2021/07/26 08:15:19;;;;;;;3.42;2.60;;;22.50;84.50;;;;;;5007922;28;20030;-71
2021/07/26 08:17:47;;;;;;;4.43;3.00;;;22.50;84.20;;;;;;5000770;28;20022;-70
2021/07/26 08:20:15;;;;;;;4.57;3.30;;;22.50;84.00;;;;;;5005018;28;20363;-69
2021/07/26 08:22:41;;;;;;;3.67;2.55;;;22.70;84.30;;;;;;5011717;28;20036;-70
2021/07/26 08:25:08;;;;;;;3.13;2.85;;;22.80;83.30;;;;;;5008998;28;20053;-70
2021/07/26 08:27:50;;;;;;;4.10;2.55;;;22.90;83.30;;;;;;5010420;28;20033;-70
2021/07/26 08:30:27;;;;;;;4.75;2.60;;;23.10;83.10;;;;;;4999772;28;20034;-69
2021/07/26 08:32:53;;;;;;;3.30;2.75;;;23.20;82.70;;;;;;5011336;28;20049;-70
2021/07/26 08:35:19;;;;;;;4.32;2.97;;;23.20;82.60;;;;;;5007935;28;20080;-70
2021/07/26 08:37:45;;;;;;;4.85;3.08;;;23.30;82.10;;;;;;5002882;28;20036;-70
2021/07/26 08:40:11;;;;;;;4.43;3.03;;;23.50;81.50;;;;;;5016734;28;20030;-70
2021/07/26 08:42:37;;;;;;;3.35;2.17;;;23.80;81.10;;;;;;5005253;28;20068;-70
2021/07/26 08:45:04;;;;;;;3.47;2.75;;;24.10;80.80;;;;;;5006205;28;20053;-70
2021/07/26 08:47:35;;;;;;;5.30;2.45;;;24.10;80.50;;;;;;5011156;28;20105;-69
2021/07/26 08:50:04;;;;;;;3.97;2.80;;;24.20;79.90;;;;;;5010330;28;20422;-71
2021/07/26 08:52:33;;;;;;;3.47;2.33;;;24.10;79.40;;;;;;5010269;28;20521;-69
2021/07/26 08:54:58;;;;;;;3.45;2.55;;;24.00;79.70;;;;;;5008320;28;20092;-69
2021/07/26 08:57:24;;;;;;;4.78;2.78;;;24.20;79.20;;;;;;5009117;28;20030;-69
2021/07/26 08:59:50;;;;;;;4.75;2.40;;;24.60;78.60;;;;;;5010997;28;20014;-69
2021/07/26 09:02:15;;;;;;;3.78;2.58;;;25.00;76.80;;;;;;5010550;28;20030;-69
2021/07/26 09:04:41;;;;;;;5.20;2.60;;;25.20;76.20;;;;;;5006133;28;20029;-70
2021/07/26 09:07:07;;;;;;;4.55;2.58;;;25.50;76.10;;;;;;5007578;28;20033;-69
2021/07/26 09:09:47;;;;;;;4.38;2.33;;;25.90;75.30;;;;;;5006480;28;20072;-70
2021/07/26 09:12:40;;;;;;;3.83;2.28;;;26.10;74.60;;;;;;4999092;28;20026;-71
2021/07/26 09:15:28;;;;;;;5.45;2.60;;;26.40;74.20;;;;;;4997892;28;20042;-69
2021/07/26 09:17:54;;;;;;;3.00;2.17;;;26.50;72.80;;;;;;5004692;28;20022;-70
2021/07/26 09:20:20;;;;;;;4.47;2.40;;;27.10;72.30;;;;;;5001951;28;20038;-69
2021/07/26 09:22:47;;;;;;;4.55;2.28;;;27.20;71.50;;;;;;4992642;28;20030;-70
2021/07/26 09:25:29;;;;;;;3.97;2.67;;;27.10;71.40;;;;;;5007908;28;20025;-69
2021/07/26 09:27:58;;;;;;;3.13;2.40;;;26.50;71.00;;;;;;5010870;28;20030;-69
2021/07/26 09:30:26;;;;;;;3.03;2.72;;;26.10;72.60;;;;;;5010436;28;20546;-69
2021/07/26 09:32:51;;;;;;;3.97;2.45;;;25.80;72.60;;;;;;5010391;28;20032;-68
2021/07/26 09:35:22;;;;;;;3.30;2.50;;;26.40;72.30;;;;;;4991767;28;20724;-69
2021/07/26 09:38:00;;;;;;;3.88;2.25;;;27.10;70.30;;;;;;5002204;28;20030;-70
2021/07/26 09:40:32;;;;;;;4.32;2.40;;;27.30;70.10;;;;;;4992547;28;20022;-71
2021/07/26 09:43:18;;;;;;;;;;;27.30;70.30;;;;;;5010826;28;20092;-69
2021/07/26 09:45:45;;;;;;;5.05;2.20;;;27.70;71.30;;;;;;4991448;28;19916;-70
2021/07/26 09:48:14;;;;;;;4.20;2.40;;;27.60;70.50;;;;;;5007813;28;20494;-69
2021/07/26 09:50:49;;;;;;;2.70;2.20;;;27.70;69.00;;;;;;4991227;28;20026;-70
2021/07/26 09:53:21;;;;;;;6.55;2.47;;;27.10;69.30;;;;;;5008555;28;20045;-70
2021/07/26 09:55:51;;;;;;;3.17;2.33;;;26.60;68.80;;;;;;5008159;28;20113;-70
2021/07/26 09:58:18;;;;;;;2.50;2.10;;;26.20;70.20;;;;;;5005689;28;20026;-70
2021/07/26 10:00:45;;;;;;;3.20;2.33;;;26.40;69.90;;;;;;5010422;28;20114;-70
2021/07/26 10:03:13;;;;;;;2.88;2.13;;;26.50;69.60;;;;;;5012217;28;20038;-71
2021/07/26 10:05:41;;;;;;;3.08;2.45;;;26.80;69.70;;;;;;5011680;28;20022;-70
2021/07/26 10:08:07;;;;;;;2.33;2.10;;;27.10;68.90;;;;;;5012024;28;20076;-71
2021/07/26 10:10:35;;;;;;;3.78;2.33;;;27.40;68.90;;;;;;5013933;28;20410;-70
2021/07/26 10:13:01;;;;;;;2.60;2.28;;;27.90;67.80;;;;;;5009719;28;20061;-71
2021/07/26 10:15:29;;;;;;;3.42;2.30;;;28.10;67.50;;;;;;5005563;28;20510;-71
2021/07/26 10:17:55;;;;;;;2.55;1.67;;;28.40;66.40;;;;;;5010637;28;20029;-70
2021/07/26 10:20:24;;;;;;;4.50;2.15;;;28.50;65.70;;;;;;5012835;28;20502;-71
2021/07/26 10:22:53;;;;;;;2.33;2.13;;;28.50;65.80;;;;;;5011428;28;20026;-71
2021/07/26 10:25:32;;;;;;;4.10;2.20;;;28.60;64.90;;;;;;5012340;28;20029;-70
2021/07/26 10:28:00;;;;;;;1.90;1.80;;;28.90;65.10;;;;;;5013364;28;20053;-71
2021/07/26 10:30:31;;;;;;;3.03;2.08;;;28.90;63.60;;;;;;5013530;28;20494;-70
2021/07/26 10:33:01;;;;;;;2.20;2.00;;;28.80;62.90;;;;;;5006780;28;20030;-70
2021/07/26 10:35:37;;;;;;;2.28;1.80;;;29.00;63.20;;;;;;5003458;28;20034;-71
2021/07/26 10:38:04;;;;;;;3.28;1.45;;;29.10;62.10;;;;;;5003576;28;20050;-70
2021/07/26 10:40:31;;;;;;;4.05;1.90;;;29.00;61.20;;;;;;5005637;28;20057;-71
2021/07/26 10:43:02;;;;;;;2.92;2.13;;;29.00;61.50;;;;;;5010341;28;20020;-70
2021/07/26 10:45:33;;;;;;;2.53;1.98;;;29.00;60.70;;;;;;5008725;28;20018;-70
2021/07/26 10:48:21;;;;;;;3.28;2.00;;;28.90;61.10;;;;;;5012468;28;20092;-70
2021/07/26 10:50:52;;;;;;;5.18;2.15;;;28.90;61.30;;;;;;5011678;23;20477;-67
2021/07/26 10:53:36;;;;;;;5.30;2.00;;;28.80;60.60;;;;;;4995507;28;20441;-68
2021/07/26 10:56:07;;;;;;;3.40;2.03;;;28.70;60.80;;;;;;4995633;28;20489;-65
2021/07/26 10:58:39;;;;;;;2.83;2.08;;;28.60;59.70;;;;;;4992493;28;20030;-67
2021/07/26 11:01:27;;;;;;;;;;;28.40;58.90;;;;;;4994253;28;20022;-68
2021/07/26 11:03:57;;;;;;;5.05;1.90;;;28.30;60.80;;;;;;4991969;28;19932;-66
2021/07/26 11:06:37;;;;;;;1.75;1.65;;;28.00;60.30;;;;;;4983271;28;20478;-67
2021/07/26 11:09:21;;;;;;;6.90;2.28;;;27.90;59.70;;;;;;4992884;28;20038;-66
2021/07/26 11:11:54;;;;;;;2.38;1.50;;;27.80;60.60;;;;;;4974953;28;20026;-67
2021/07/26 11:14:21;;;;;;;2.63;1.95;;;27.80;59.90;;;;;;4991774;28;20625;-67
2021/07/26 11:16:56;;;;;;;2.42;1.67;;;27.60;60.40;;;;;;4991796;28;20043;-72
2021/07/26 11:19:36;;;;;;;1.98;1.77;;;27.60;59.70;;;;;;4972577;28;20031;-70
2021/07/26 11:22:07;;;;;;;5.40;1.92;;;27.50;61.10;;;;;;4987222;28;20513;-66
2021/07/26 11:24:49;;;;;;;3.28;2.40;;;27.70;61.10;;;;;;4991155;28;20053;-70
2021/07/26 11:27:24;;;;;;;1.95;1.75;;;27.90;60.70;;;;;;4992240;28;20475;-66
2021/07/26 11:29:50;;;;;;;2.55;1.90;;;28.10;60.60;;;;;;4993409;28;20558;-65
2021/07/26 11:32:23;;;;;;;2.75;1.77;;;28.10;60.60;;;;;;4975350;28;20117;-66
2021/07/26 11:34:56;;;;;;;2.90;1.92;;;28.10;58.80;;;;;;4974433;28;20023;-66
2021/07/26 11:37:35;;;;;;;2.13;1.80;;;28.10;58.70;;;;;;4991278;28;20089;-67
2021/07/26 11:40:09;;;;;;;2.63;2.15;;;28.10;58.20;;;;;;4983200;28;20415;-67
2021/07/26 11:42:43;;;;;;;1.85;1.60;;;27.90;58.00;;;;;;4970931;28;20419;-67
2021/07/26 11:45:17;;;;;;;5.60;1.88;;;27.90;58.20;;;;;;4990958;28;20026;-70
2021/07/26 11:47:53;;;;;;;3.63;2.00;;;27.90;59.20;;;;;;4975359;28;20054;-67
2021/07/26 11:50:20;;;;;;;6.80;1.90;;;28.00;58.20;;;;;;4999215;28;20038;-67
2021/07/26 11:52:56;;;;;;;2.45;1.58;;;28.10;58.20;;;;;;4995464;28;20026;-67
2021/07/26 11:55:27;;;;;;;2.70;1.95;;;28.10;58.40;;;;;;4984631;28;20034;-67
2021/07/26 11:58:01;;;;;;;3.35;1.80;;;28.10;58.00;;;;;;4991086;28;20026;-67
2021/07/26 12:00:32;;;;;;;2.60;2.15;;;28.10;58.10;;;;;;4983588;28;20034;-67
2021/07/26 12:02:58;;;;;;;3.40;1.90;;;28.20;58.10;;;;;;4991907;28;20435;-71
2021/07/26 12:05:31;;;;;;;2.13;1.90;;;28.10;58.10;;;;;;4989487;28;20023;-71
2021/07/26 12:07:58;;;;;;;2.88;1.80;;;28.10;58.40;;;;;;4972345;28;20050;-67
2021/07/26 12:10:35;;;;;;;3.35;1.77;;;28.10;58.50;;;;;;4990669;28;20022;-70
2021/07/26 12:13:11;;;;;;;3.00;1.92;;;28.00;58.20;;;;;;4989957;28;20023;-67
2021/07/26 12:15:38;;;;;;;2.95;1.90;;;28.00;58.50;;;;;;4989623;28;20457;-68
2021/07/26 12:18:07;;;;;;;2.35;2.05;;;28.10;58.20;;;;;;4991342;28;20022;-67
2021/07/26 12:20:37;;;;;;;3.72;1.77;;;28.10;57.50;;;;;;4973236;28;20724;-68
2021/07/26 12:23:14;;;;;;;2.10;1.60;;;28.10;57.60;;;;;;4990124;28;20073;-68
2021/07/26 12:25:51;;;;;;;3.05;1.90;;;28.20;57.00;;;;;;4966197;28;20026;-67
2021/07/26 12:28:18;;;;;;;3.55;1.90;;;28.10;56.70;;;;;;4989535;28;20022;-70
2021/07/26 12:30:46;;;;;;;3.20;2.03;;;28.10;56.50;;;;;;4995952;28;20048;-68
2021/07/26 12:33:25;;;;;;;3.08;2.10;;;28.10;57.30;;;;;;4990677;28;20045;-70
2021/07/26 12:36:08;;;;;;;2.60;2.03;;;28.10;56.80;;;;;;4988228;28;20029;-69
2021/07/26 12:38:33;;;;;;;1.77;1.60;;;28.20;56.80;;;;;;4990010;28;20026;-67
2021/07/26 12:41:07;;;;;;;2.47;1.95;;;28.00;56.70;;;;;;4990288;28;20026;-67
2021/07/26 12:43:42;;;;;;;2.17;1.88;;;28.00;57.00;;;;;;4990176;28;20022;-69
2021/07/26 12:46:07;;;;;;;4.80;2.15;;;27.90;57.40;;;;;;4990318;28;20113;-67
2021/07/26 12:48:35;;;;;;;3.22;2.00;;;27.80;56.70;;;;;;4991079;28;20101;-68
2021/07/26 12:51:04;;;;;;;2.00;1.80;;;27.60;57.70;;;;;;4990828;28;20030;-67
2021/07/26 12:53:30;;;;;;;3.90;2.00;;;27.50;58.40;;;;;;4991400;28;20026;-66
2021/07/26 12:55:56;;;;;;;4.38;2.17;;;27.50;58.50;;;;;;4972122;28;20101;-68